Time;durP1;ratioP1;P1;durP2;ratioP2;P2;SDS_P1;SDS_P2;PMS_P1;PMS_P2;Temp;Humidity;BMP_temperature;BMP_pressure;BME280_temperature;BME280_humidity;BME280_pressure;Samples;Min_cycle;Max_cycle;Signal;HPM_P1;HPM_P2
2021/12/28 00:00:24;;;;;;;8.48;7.22;;;12.50;96.70;;;;;;4959781;28;20057;-76
2021/12/28 00:02:54;;;;;;;8.60;7.25;;;12.40;96.70;;;;;;4959503;28;20056;-76
2021/12/28 00:05:23;;;;;;;9.88;6.88;;;12.40;96.70;;;;;;4962582;28;20038;-77
2021/12/28 00:07:51;;;;;;;8.13;6.97;;;12.40;96.70;;;;;;4962218;28;20392;-76
2021/12/28 00:10:20;;;;;;;8.18;6.68;;;12.40;96.70;;;;;;4962629;28;20493;-76
2021/12/28 00:12:49;;;;;;;7.15;6.20;;;12.40;96.70;;;;;;4959633;28;20049;-75
2021/12/28 00:17:59;;;;;;;10.17;6.90;;;12.40;96.70;;;;;;4997764;28;20567;-76
2021/12/28 00:20:27;;;;;;;8.85;7.00;;;12.40;96.70;;;;;;4979025;28;20477;-76
2021/12/28 00:22:56;;;;;;;8.48;6.90;;;12.40;96.70;;;;;;4979866;28;20125;-75
2021/12/28 00:25:24;;;;;;;9.38;7.32;;;12.40;96.70;;;;;;4978538;28;20050;-75
2021/12/28 00:27:52;;;;;;;7.72;6.93;;;12.40;96.70;;;;;;4983294;28;20051;-75
2021/12/28 00:30:21;;;;;;;8.65;6.95;;;12.40;96.70;;;;;;4984114;28;20043;-75
2021/12/28 00:32:53;;;;;;;7.57;6.72;;;12.40;96.70;;;;;;4982908;28;20072;-75
2021/12/28 00:35:25;;;;;;;7.75;6.95;;;12.40;96.70;;;;;;4983571;28;20034;-75
2021/12/28 00:37:53;;;;;;;8.02;7.18;;;12.40;96.70;;;;;;4979633;28;20046;-75
2021/12/28 00:40:22;;;;;;;9.30;7.20;;;12.40;96.70;;;;;;4983178;28;20042;-75
2021/12/28 00:42:50;;;;;;;8.38;6.75;;;12.50;96.70;;;;;;4981724;28;20074;-75
2021/12/28 00:45:19;;;;;;;7.18;5.80;;;12.50;96.70;;;;;;4981828;28;20499;-75
2021/12/28 00:47:47;;;;;;;7.43;6.63;;;12.50;96.70;;;;;;4984221;28;20050;-76
2021/12/28 00:50:17;;;;;;;8.35;6.78;;;12.50;96.70;;;;;;4983886;28;20046;-75
2021/12/28 00:52:47;;;;;;;7.60;6.88;;;12.50;96.70;;;;;;4981109;28;20125;-75
2021/12/28 00:55:18;;;;;;;6.97;6.28;;;12.50;96.70;;;;;;4981941;28;20050;-75
2021/12/28 00:57:46;;;;;;;7.40;6.72;;;12.50;96.70;;;;;;4984513;28;20100;-75
2021/12/28 01:00:18;;;;;;;7.75;6.47;;;12.50;96.70;;;;;;4983930;28;20038;-75
2021/12/28 01:02:46;;;;;;;7.22;6.43;;;12.50;96.70;;;;;;4981328;28;20041;-75
2021/12/28 01:05:14;;;;;;;6.65;5.97;;;12.50;96.70;;;;;;4981222;28;20038;-75
2021/12/28 01:07:43;;;;;;;7.18;6.47;;;12.50;96.70;;;;;;4983170;28;20045;-75
2021/12/28 01:10:15;;;;;;;7.97;6.45;;;12.50;96.70;;;;;;4982733;28;20405;-75
2021/12/28 01:12:43;;;;;;;6.65;5.88;;;12.50;96.70;;;;;;4983792;28;20070;-75
2021/12/28 01:15:14;;;;;;;7.20;6.07;;;12.50;96.70;;;;;;4976978;28;20058;-75
2021/12/28 01:17:42;;;;;;;7.22;6.15;;;12.50;96.70;;;;;;4965370;28;20047;-76
2021/12/28 01:20:11;;;;;;;5.80;5.20;;;12.50;96.70;;;;;;4975368;28;20035;-76
2021/12/28 01:22:41;;;;;;;7.13;6.30;;;12.50;96.70;;;;;;4963496;28;20650;-76
2021/12/28 01:25:12;;;;;;;8.15;6.57;;;12.50;96.70;;;;;;4961981;28;20038;-76
2021/12/28 01:27:40;;;;;;;8.68;7.10;;;12.50;96.70;;;;;;4979302;28;20126;-76
2021/12/28 01:30:10;;;;;;;7.72;6.93;;;12.50;96.70;;;;;;4945114;28;20050;-76
2021/12/28 01:32:38;;;;;;;7.18;6.22;;;12.50;96.70;;;;;;4963549;28;20043;-77
2021/12/28 01:35:09;;;;;;;9.68;7.38;;;12.50;96.70;;;;;;4981827;28;20062;-77
2021/12/28 01:37:37;;;;;;;9.38;6.85;;;12.50;96.70;;;;;;4947035;28;20100;-76
2021/12/28 01:40:07;;;;;;;7.38;6.57;;;12.50;96.70;;;;;;4959351;28;20042;-76
2021/12/28 01:45:38;;;;;;;8.10;7.30;;;12.50;96.70;;;;;;5097837;27;1498801;-77
2021/12/28 01:48:07;;;;;;;7.93;6.30;;;12.50;96.70;;;;;;5115315;27;20043;-77
2021/12/28 01:50:38;;;;;;;8.05;6.88;;;12.50;96.70;;;;;;5135730;27;20412;-76
2021/12/28 01:53:07;;;;;;;7.03;6.28;;;12.50;96.70;;;;;;5110266;27;20031;-77
2021/12/28 01:55:39;;;;;;;8.05;6.72;;;12.50;96.70;;;;;;5110313;27;20544;-78
2021/12/28 01:58:08;;;;;;;6.78;6.07;;;12.50;96.70;;;;;;5129254;27;20076;-78
2021/12/28 02:00:38;;;;;;;7.65;6.30;;;12.50;96.70;;;;;;5115415;27;20038;-79
2021/12/28 02:03:11;;;;;;;6.82;6.13;;;12.60;96.70;;;;;;5112143;27;20034;-79
2021/12/28 02:05:40;;;;;;;7.97;6.13;;;12.60;96.70;;;;;;5112676;27;20160;-80
2021/12/28 02:08:09;;;;;;;6.25;5.55;;;12.60;96.70;;;;;;5133886;27;20050;-79
2021/12/28 02:10:37;;;;;;;6.95;5.63;;;12.60;96.70;;;;;;5131514;27;20120;-79
2021/12/28 02:13:06;;;;;;;6.07;5.47;;;12.60;96.70;;;;;;5113790;27;20046;-80
2021/12/28 02:15:37;;;;;;;6.10;5.38;;;12.60;96.70;;;;;;5116540;27;20035;-80
2021/12/28 02:18:07;;;;;;;6.72;5.65;;;12.60;96.70;;;;;;5131798;27;20038;-79
2021/12/28 02:20:38;;;;;;;5.78;5.18;;;12.60;96.70;;;;;;5112638;27;20043;-79
2021/12/28 02:23:06;;;;;;;8.02;5.78;;;12.60;96.70;;;;;;5113826;27;20046;-79
2021/12/28 02:25:36;;;;;;;6.30;5.45;;;12.60;96.70;;;;;;5109347;27;20148;-79
2021/12/28 02:28:06;;;;;;;7.07;6.30;;;12.60;96.70;;;;;;5127664;27;20031;-79
2021/12/28 02:30:36;;;;;;;10.80;8.20;;;12.60;96.70;;;;;;5109502;27;20041;-79
2021/12/28 02:33:05;;;;;;;9.30;8.27;;;12.60;96.70;;;;;;5112486;27;20111;-79
2021/12/28 02:35:34;;;;;;;10.13;9.07;;;12.60;96.70;;;;;;5128011;27;20500;-78
2021/12/28 02:38:05;;;;;;;9.90;8.77;;;12.50;96.70;;;;;;5113368;27;20047;-78
2021/12/28 02:40:35;;;;;;;9.55;8.45;;;12.50;96.70;;;;;;5113193;27;20040;-78
2021/12/28 02:43:05;;;;;;;11.88;9.52;;;12.50;96.70;;;;;;5111207;27;20039;-78
2021/12/28 02:45:36;;;;;;;10.70;9.63;;;12.50;96.70;;;;;;5123419;27;20039;-78
2021/12/28 02:48:05;;;;;;;14.05;10.38;;;12.50;96.70;;;;;;5130172;27;20070;-78
2021/12/28 02:50:39;;;;;;;9.25;8.35;;;12.50;96.70;;;;;;5110399;27;20039;-78
2021/12/28 02:53:10;;;;;;;9.15;8.25;;;12.40;96.70;;;;;;5128593;27;20051;-79
2021/12/28 02:55:40;;;;;;;8.77;7.22;;;12.40;96.70;;;;;;5108661;27;20043;-81
2021/12/28 02:58:11;;;;;;;6.93;6.22;;;12.40;96.70;;;;;;5117885;27;20081;-81
2021/12/28 03:00:42;;;;;;;6.65;6.05;;;12.40;96.70;;;;;;5099891;27;20428;-82
2021/12/28 03:03:14;;;;;;;6.28;5.68;;;12.30;96.70;;;;;;5101061;27;20035;-81
2021/12/28 03:05:45;;;;;;;5.70;5.20;;;12.30;96.70;;;;;;5104438;27;20042;-82
2021/12/28 03:08:17;;;;;;;6.25;5.38;;;12.30;96.70;;;;;;5083663;27;20047;-80
2021/12/28 03:10:45;;;;;;;5.47;4.97;;;12.30;96.70;;;;;;5095807;27;20099;-80
2021/12/28 03:13:16;;;;;;;4.53;4.13;;;12.30;96.70;;;;;;5120474;27;20042;-80
2021/12/28 03:15:44;;;;;;;5.00;4.50;;;12.30;96.70;;;;;;5100947;27;20051;-80
2021/12/28 03:18:13;;;;;;;4.45;4.05;;;12.30;96.70;;;;;;5104481;27;20519;-80
2021/12/28 03:20:41;;;;;;;4.53;4.13;;;12.30;96.70;;;;;;5114990;27;20122;-81
2021/12/28 03:23:09;;;;;;;4.03;3.63;;;12.30;96.70;;;;;;5101284;27;20107;-78
2021/12/28 03:25:39;;;;;;;4.35;3.72;;;12.30;96.70;;;;;;5098971;27;20105;-78
2021/12/28 03:28:08;;;;;;;6.07;3.60;;;12.30;96.70;;;;;;5102777;27;20112;-79
2021/12/28 03:30:37;;;;;;;4.25;3.80;;;12.30;96.70;;;;;;5098390;27;20543;-78
2021/12/28 03:33:05;;;;;;;3.70;3.40;;;12.40;96.70;;;;;;5112804;27;20039;-78
2021/12/28 03:35:33;;;;;;;3.90;3.50;;;12.40;96.70;;;;;;5098007;27;20153;-78
2021/12/28 03:38:01;;;;;;;3.67;3.38;;;12.40;96.70;;;;;;5098639;27;20891;-78
2021/12/28 03:40:29;;;;;;;3.40;3.10;;;12.30;96.70;;;;;;5113275;27;20128;-77
2021/12/28 03:42:59;;;;;;;3.42;3.13;;;12.30;96.70;;;;;;5125450;27;20144;-78
2021/12/28 03:45:27;;;;;;;3.55;3.22;;;12.20;96.70;;;;;;5060324;28;20951;-78
2021/12/28 03:47:56;;;;;;;3.88;3.45;;;12.20;96.70;;;;;;5075594;28;20038;-78
2021/12/28 03:50:25;;;;;;;3.75;3.45;;;12.10;96.70;;;;;;5075494;28;20434;-78
2021/12/28 03:52:54;;;;;;;3.63;3.33;;;12.10;96.70;;;;;;5077438;28;20060;-78
2021/12/28 03:55:23;;;;;;;4.40;4.00;;;12.10;96.70;;;;;;5077374;28;20106;-77
2021/12/28 03:57:52;;;;;;;4.30;3.90;;;12.20;96.70;;;;;;5076550;28;20064;-76
2021/12/28 04:00:23;;;;;;;7.18;6.07;;;12.10;96.70;;;;;;5076706;28;20075;-77
2021/12/28 04:02:51;;;;;;;5.85;4.38;;;12.10;96.70;;;;;;5074295;28;20378;-77
2021/12/28 04:05:20;;;;;;;4.75;4.28;;;12.00;96.70;;;;;;5081423;28;20090;-77
2021/12/28 04:07:48;;;;;;;4.00;3.40;;;12.00;96.70;;;;;;5074612;28;20455;-76
2021/12/28 04:10:18;;;;;;;3.33;3.03;;;11.90;96.70;;;;;;5073832;28;20609;-77
2021/12/28 04:12:47;;;;;;;4.03;3.20;;;11.90;96.70;;;;;;5074077;28;20523;-77
2021/12/28 04:15:15;;;;;;;3.10;2.80;;;12.00;96.70;;;;;;5059775;28;20063;-76
2021/12/28 04:17:45;;;;;;;3.15;2.85;;;12.00;96.70;;;;;;5080809;28;20040;-76
2021/12/28 04:20:16;;;;;;;2.83;2.60;;;12.00;96.70;;;;;;5073758;28;20044;-77
2021/12/28 04:22:45;;;;;;;2.70;2.50;;;12.00;96.70;;;;;;5073674;28;20122;-77
2021/12/28 04:25:15;;;;;;;3.10;2.90;;;12.10;96.70;;;;;;5078118;28;20521;-77
2021/12/28 04:27:43;;;;;;;2.97;2.75;;;12.10;96.70;;;;;;5080935;28;20088;-76
2021/12/28 04:30:13;;;;;;;2.97;2.67;;;12.10;96.70;;;;;;5076852;28;20095;-76
2021/12/28 04:32:42;;;;;;;2.92;2.60;;;12.10;96.70;;;;;;5081316;28;20040;-76
2021/12/28 04:35:12;;;;;;;2.70;2.50;;;12.10;96.70;;;;;;5076459;28;20070;-78
2021/12/28 04:37:41;;;;;;;3.22;2.85;;;12.10;96.70;;;;;;5067564;28;20114;-76
2021/12/28 04:40:11;;;;;;;3.10;2.80;;;12.00;96.70;;;;;;5052810;28;20032;-76
2021/12/28 04:42:40;;;;;;;4.63;3.10;;;12.00;96.70;;;;;;5068687;28;20123;-76
2021/12/28 04:45:10;;;;;;;3.53;3.22;;;12.00;96.70;;;;;;5089082;27;20056;-76
2021/12/28 04:47:38;;;;;;;3.45;3.15;;;12.00;96.70;;;;;;5095723;27;20092;-76
2021/12/28 04:50:09;;;;;;;3.10;2.80;;;12.00;96.70;;;;;;5095368;27;20466;-76
2021/12/28 04:52:40;;;;;;;4.65;3.30;;;12.00;96.70;;;;;;5090123;28;20119;-77
2021/12/28 04:55:12;;;;;;;4.10;3.70;;;12.00;96.70;;;;;;5090542;28;20042;-77
2021/12/28 04:57:41;;;;;;;4.30;3.88;;;12.00;96.70;;;;;;5095475;28;20063;-77
2021/12/28 05:00:15;;;;;;;4.15;3.80;;;12.00;96.70;;;;;;5089027;27;20044;-76
2021/12/28 05:02:47;;;;;;;4.13;3.50;;;12.00;96.70;;;;;;5098557;27;20113;-76
2021/12/28 05:05:15;;;;;;;6.60;4.57;;;12.00;96.70;;;;;;5100538;27;20063;-77
2021/12/28 05:07:45;;;;;;;6.25;5.57;;;12.10;96.70;;;;;;5091566;27;20134;-76
2021/12/28 05:10:13;;;;;;;6.22;5.53;;;12.10;96.70;;;;;;5096061;28;20042;-77
2021/12/28 05:12:43;;;;;;;6.13;5.50;;;12.10;96.70;;;;;;5099174;27;20051;-76
2021/12/28 05:15:14;;;;;;;6.78;5.95;;;12.10;96.70;;;;;;5094922;27;20538;-76
2021/12/28 05:17:42;;;;;;;9.10;7.38;;;12.10;96.70;;;;;;5100020;27;20043;-77
2021/12/28 05:20:11;;;;;;;7.05;5.95;;;12.20;96.70;;;;;;5090503;28;20104;-76
2021/12/28 05:22:40;;;;;;;8.00;6.85;;;12.20;96.70;;;;;;5093388;27;20047;-78
2021/12/28 05:25:12;;;;;;;7.75;6.68;;;12.20;96.70;;;;;;5092321;28;20075;-77
2021/12/28 05:27:41;;;;;;;9.13;7.35;;;12.30;96.70;;;;;;5103791;27;20149;-78
2021/12/28 05:30:11;;;;;;;11.27;8.30;;;12.30;96.70;;;;;;5096324;27;20158;-77
2021/12/28 05:32:39;;;;;;;9.68;8.38;;;12.30;96.70;;;;;;5093618;27;20143;-77
2021/12/28 05:35:08;;;;;;;9.07;7.63;;;12.30;96.70;;;;;;5090064;28;20480;-78
2021/12/28 05:37:37;;;;;;;9.75;7.97;;;12.30;96.70;;;;;;5088560;28;20043;-77
2021/12/28 05:40:07;;;;;;;10.07;9.00;;;12.30;96.70;;;;;;5077048;28;20047;-77
2021/12/28 05:42:37;;;;;;;9.70;7.60;;;12.30;96.70;;;;;;5094183;28;20043;-77
2021/12/28 05:45:06;;;;;;;10.82;8.57;;;12.30;96.70;;;;;;5111683;27;20069;-77
2021/12/28 05:47:34;;;;;;;10.80;8.05;;;12.30;96.70;;;;;;5115839;27;20496;-77
2021/12/28 05:50:04;;;;;;;10.23;8.82;;;12.30;96.70;;;;;;5098536;28;20066;-76
2021/12/28 05:52:33;;;;;;;8.90;7.50;;;12.40;96.70;;;;;;5115925;27;20054;-76
2021/12/28 05:55:01;;;;;;;9.13;7.97;;;12.30;96.70;;;;;;5094330;28;20046;-76
2021/12/28 05:57:30;;;;;;;10.15;8.15;;;12.40;96.70;;;;;;5100897;28;20571;-76
2021/12/28 06:00:00;;;;;;;9.75;8.27;;;12.40;96.70;;;;;;5097412;27;20041;-76
2021/12/28 06:02:28;;;;;;;8.38;7.43;;;12.40;96.70;;;;;;5098279;27;20118;-76
2021/12/28 06:04:56;;;;;;;9.45;6.70;;;12.40;96.70;;;;;;5101297;27;20089;-76
2021/12/28 06:07:27;;;;;;;7.97;7.18;;;12.30;96.70;;;;;;5112933;27;20040;-76
2021/12/28 06:09:56;;;;;;;8.32;7.40;;;12.40;96.70;;;;;;5095057;28;20039;-76
2021/12/28 06:12:25;;;;;;;9.98;7.40;;;12.40;96.70;;;;;;5091602;27;20051;-76
2021/12/28 06:14:53;;;;;;;8.60;7.07;;;12.40;96.70;;;;;;5097319;27;20047;-76
2021/12/28 06:17:23;;;;;;;8.90;7.30;;;12.40;96.70;;;;;;5090766;27;20043;-76
2021/12/28 06:19:51;;;;;;;7.13;6.43;;;12.40;96.70;;;;;;5098277;27;20039;-76
2021/12/28 06:22:19;;;;;;;8.00;7.10;;;12.30;96.70;;;;;;5094944;28;20039;-76
2021/12/28 06:24:49;;;;;;;9.05;7.05;;;12.30;96.70;;;;;;5096021;28;20056;-76
2021/12/28 06:27:18;;;;;;;7.95;7.07;;;12.20;96.70;;;;;;5077334;27;20048;-76
2021/12/28 06:29:46;;;;;;;7.03;6.32;;;12.20;96.70;;;;;;5106350;27;20044;-77
2021/12/28 06:32:14;;;;;;;8.48;7.22;;;12.20;96.70;;;;;;5116903;27;20082;-77
2021/12/28 06:34:44;;;;;;;9.48;7.30;;;12.20;96.70;;;;;;5099155;27;20538;-77
2021/12/28 06:37:12;;;;;;;8.43;7.47;;;12.20;96.70;;;;;;5097070;27;20043;-77
2021/12/28 06:39:40;;;;;;;8.10;6.90;;;12.20;96.70;;;;;;5101248;27;20114;-77
2021/12/28 06:42:09;;;;;;;7.70;6.53;;;12.20;96.70;;;;;;5106144;27;20039;-77
2021/12/28 06:44:37;;;;;;;8.18;6.45;;;12.20;96.70;;;;;;5086573;27;20146;-76
2021/12/28 06:47:05;;;;;;;7.82;7.03;;;12.20;96.70;;;;;;5099343;27;20043;-76
2021/12/28 06:49:38;;;;;;;7.93;7.13;;;12.20;96.70;;;;;;5121412;27;20109;-76
2021/12/28 06:52:08;;;;;;;8.43;6.97;;;12.20;96.70;;;;;;5101271;27;20096;-76
2021/12/28 06:54:37;;;;;;;6.97;6.22;;;12.20;96.70;;;;;;5098038;27;20074;-76
2021/12/28 06:57:08;;;;;;;7.20;6.50;;;12.20;96.70;;;;;;5117532;27;20134;-76
2021/12/28 06:59:37;;;;;;;7.97;7.05;;;12.20;96.70;;;;;;5084234;28;20047;-76
2021/12/28 07:02:06;;;;;;;8.18;6.70;;;12.20;96.70;;;;;;5103231;27;20039;-78
2021/12/28 07:04:34;;;;;;;8.50;7.07;;;12.20;96.70;;;;;;5101119;27;20043;-78
2021/12/28 07:07:04;;;;;;;7.72;6.93;;;12.20;96.70;;;;;;5100173;27;20060;-77
2021/12/28 07:09:35;;;;;;;8.35;6.50;;;12.20;96.70;;;;;;5102657;27;20419;-77
2021/12/28 07:12:04;;;;;;;6.93;6.13;;;12.20;96.70;;;;;;5100430;27;20104;-77
2021/12/28 07:14:32;;;;;;;7.00;6.22;;;12.10;96.70;;;;;;5096664;27;20097;-77
2021/12/28 07:17:00;;;;;;;6.85;5.97;;;12.10;96.70;;;;;;5088380;27;20488;-77
2021/12/28 07:19:28;;;;;;;7.38;6.22;;;12.20;96.70;;;;;;5109921;27;20066;-77
2021/12/28 07:21:57;;;;;;;6.90;6.03;;;12.10;96.70;;;;;;5104828;27;20035;-77
2021/12/28 07:24:25;;;;;;;6.03;5.43;;;12.20;96.70;;;;;;5100775;27;20059;-77
2021/12/28 07:26:54;;;;;;;7.65;5.88;;;12.20;96.70;;;;;;5120808;27;20046;-77
2021/12/28 07:29:22;;;;;;;6.78;5.85;;;12.20;96.70;;;;;;5108017;27;20039;-77
2021/12/28 07:31:51;;;;;;;7.82;6.53;;;12.10;96.70;;;;;;5107583;27;20562;-77
2021/12/28 07:34:19;;;;;;;6.85;6.18;;;12.10;96.70;;;;;;5095503;27;20050;-77
2021/12/28 07:36:47;;;;;;;7.25;6.53;;;12.10;96.70;;;;;;5085553;27;20096;-76
2021/12/28 07:39:15;;;;;;;6.13;5.53;;;12.20;96.70;;;;;;5097270;27;20457;-77
2021/12/28 07:41:44;;;;;;;6.75;6.05;;;12.10;96.70;;;;;;5098448;27;20042;-77
2021/12/28 07:44:13;;;;;;;5.95;5.38;;;12.10;96.70;;;;;;5106198;27;20407;-76
2021/12/28 07:46:41;;;;;;;6.10;5.40;;;12.10;96.70;;;;;;5104543;27;20051;-76
2021/12/28 07:49:09;;;;;;;6.85;5.78;;;12.20;96.70;;;;;;5101227;27;20040;-75
2021/12/28 07:51:37;;;;;;;6.28;5.68;;;12.20;96.70;;;;;;5121467;27;20035;-76
2021/12/28 07:54:05;;;;;;;5.78;5.22;;;12.20;96.70;;;;;;5091807;27;20035;-75
2021/12/28 07:56:33;;;;;;;7.45;6.00;;;12.20;96.70;;;;;;5099856;27;21088;-77
2021/12/28 07:59:01;;;;;;;7.55;5.93;;;12.20;96.70;;;;;;5109753;27;20042;-77
2021/12/28 08:01:32;;;;;;;7.10;6.40;;;12.20;96.70;;;;;;5098585;27;20043;-76
2021/12/28 08:04:00;;;;;;;7.68;6.80;;;12.20;96.70;;;;;;5102888;27;20047;-77
2021/12/28 08:06:28;;;;;;;7.53;6.22;;;12.20;96.70;;;;;;5109119;27;20040;-76
2021/12/28 08:08:56;;;;;;;7.30;6.47;;;12.30;96.70;;;;;;5082084;27;20043;-77
2021/12/28 08:11:25;;;;;;;6.13;5.47;;;12.30;96.70;;;;;;5118333;27;20531;-76
2021/12/28 08:13:53;;;;;;;6.80;5.97;;;12.30;96.70;;;;;;5095110;27;20039;-76
2021/12/28 08:16:21;;;;;;;8.07;6.55;;;12.30;96.70;;;;;;5080164;27;20045;-79
2021/12/28 08:18:51;;;;;;;7.93;6.38;;;12.30;96.70;;;;;;5089549;27;20055;-77
2021/12/28 08:21:39;;;;;;;6.97;6.28;;;12.30;96.70;;;;;;5109340;27;20478;-76
2021/12/28 08:24:07;;;;;;;7.88;6.78;;;12.30;96.70;;;;;;5096895;27;20135;-76
2021/12/28 08:26:35;;;;;;;8.15;7.00;;;12.30;96.70;;;;;;5112775;27;20067;-79
2021/12/28 08:29:03;;;;;;;8.70;6.82;;;12.30;96.70;;;;;;5097986;27;20387;-78
2021/12/28 08:31:33;;;;;;;8.02;6.60;;;12.40;96.70;;;;;;5113492;27;20070;-78
2021/12/28 08:34:03;;;;;;;8.00;6.72;;;12.40;96.70;;;;;;5089709;27;20147;-77
2021/12/28 08:36:31;;;;;;;8.60;7.70;;;12.40;96.70;;;;;;5099784;27;20530;-77
2021/12/28 08:38:59;;;;;;;8.88;7.40;;;12.40;96.70;;;;;;5100374;27;20672;-76
2021/12/28 08:41:27;;;;;;;7.70;6.93;;;12.40;96.70;;;;;;5118278;27;20043;-77
2021/12/28 08:43:55;;;;;;;9.13;8.00;;;12.40;96.70;;;;;;5104106;27;20400;-77
2021/12/28 08:46:23;;;;;;;9.48;8.10;;;12.40;96.70;;;;;;5077865;27;20039;-78
2021/12/28 08:48:51;;;;;;;9.90;8.40;;;12.40;96.70;;;;;;5093738;28;20047;-78
2021/12/28 08:51:21;;;;;;;11.60;8.98;;;12.40;96.70;;;;;;5077179;27;20108;-76
2021/12/28 08:53:49;;;;;;;13.85;8.32;;;12.40;96.70;;;;;;5099908;27;20117;-77
2021/12/28 08:56:17;;;;;;;10.20;8.13;;;12.40;96.70;;;;;;5118203;27;20035;-77
2021/12/28 08:58:45;;;;;;;9.93;8.18;;;12.50;96.70;;;;;;5098567;27;20560;-76
2021/12/28 09:01:13;;;;;;;9.63;8.23;;;12.50;96.70;;;;;;5111703;27;20159;-76
2021/12/28 09:03:41;;;;;;;11.05;8.57;;;12.50;96.70;;;;;;5110373;27;20040;-77
2021/12/28 09:06:09;;;;;;;8.88;7.85;;;12.50;96.70;;;;;;5093840;27;21025;-76
2021/12/28 09:08:39;;;;;;;10.10;8.13;;;12.50;96.70;;;;;;5095342;27;20158;-76
2021/12/28 09:11:06;;;;;;;9.77;7.45;;;12.50;96.70;;;;;;5108049;27;20096;-77
2021/12/28 09:13:36;;;;;;;9.38;8.07;;;12.60;96.70;;;;;;5115824;27;20065;-75
2021/12/28 09:16:05;;;;;;;9.48;7.53;;;12.60;96.70;;;;;;5096117;27;20481;-79
2021/12/28 09:18:34;;;;;;;10.02;8.52;;;12.70;96.70;;;;;;5094434;27;20047;-75
2021/12/28 09:21:02;;;;;;;9.45;8.45;;;12.70;96.70;;;;;;5099589;27;20254;-76
2021/12/28 09:23:30;;;;;;;9.95;8.35;;;12.80;96.70;;;;;;5098678;27;20044;-77
2021/12/28 09:26:20;;;;;;;9.70;8.25;;;12.80;96.70;;;;;;5118459;27;20043;-75
2021/12/28 09:28:48;;;;;;;9.35;8.00;;;12.80;96.70;;;;;;5098296;27;20088;-77
2021/12/28 09:31:16;;;;;;;11.00;8.75;;;12.80;96.70;;;;;;5119300;27;20641;-77
2021/12/28 09:33:44;;;;;;;8.60;7.60;;;12.80;96.70;;;;;;5096454;27;20069;-78
2021/12/28 09:36:15;;;;;;;9.52;7.43;;;12.90;96.70;;;;;;5098019;27;20047;-79
2021/12/28 09:38:44;;;;;;;8.98;7.47;;;12.90;96.70;;;;;;5115595;27;20680;-78
2021/12/28 09:41:14;;;;;;;10.07;8.38;;;12.90;96.70;;;;;;5114865;27;20043;-79
2021/12/28 09:43:48;;;;;;;8.93;7.53;;;12.90;96.70;;;;;;5113240;27;20043;-77
2021/12/28 09:46:16;;;;;;;7.75;6.68;;;12.90;96.70;;;;;;5097782;27;20056;-75
2021/12/28 09:48:44;;;;;;;9.10;7.22;;;12.90;96.70;;;;;;5096152;27;20118;-76
2021/12/28 09:51:12;;;;;;;7.78;6.75;;;12.90;96.70;;;;;;5112660;27;20049;-75
2021/12/28 09:53:41;;;;;;;7.45;6.43;;;13.00;96.70;;;;;;5094485;28;20547;-75
2021/12/28 09:56:09;;;;;;;8.73;6.60;;;13.00;96.70;;;;;;5095943;28;20504;-75
2021/12/28 09:58:40;;;;;;;7.50;6.00;;;13.10;96.70;;;;;;5114713;27;20039;-75
2021/12/28 10:01:10;;;;;;;7.45;6.60;;;13.10;96.70;;;;;;5095062;28;20052;-75
2021/12/28 10:03:39;;;;;;;9.45;6.82;;;13.10;96.70;;;;;;5111013;27;20035;-76
2021/12/28 10:06:20;;;;;;;7.72;6.82;;;13.10;96.70;;;;;;5120838;27;20537;-77
2021/12/28 10:09:02;;;;;;;7.90;6.65;;;13.10;96.70;;;;;;5100702;27;20131;-75
2021/12/28 10:11:35;;;;;;;8.95;7.22;;;13.20;96.70;;;;;;5099576;27;20142;-75
2021/12/28 10:14:15;;;;;;;7.95;6.90;;;13.20;96.70;;;;;;5097566;27;20040;-75
2021/12/28 10:16:49;;;;;;;9.40;7.05;;;13.20;96.70;;;;;;5096481;27;20453;-76
2021/12/28 10:19:31;;;;;;;7.93;7.03;;;13.30;96.70;;;;;;5113436;27;20039;-76
2021/12/28 10:22:26;;;;;;;8.43;7.05;;;13.30;96.70;;;;;;5093777;27;20806;-77
2021/12/28 10:24:57;;;;;;;7.68;6.57;;;13.40;96.70;;;;;;5095942;27;20612;-77
2021/12/28 10:27:27;;;;;;;9.48;7.78;;;13.50;96.70;;;;;;5114499;27;20099;-77
2021/12/28 10:30:03;;;;;;;7.65;6.47;;;13.60;96.70;;;;;;5098889;27;20043;-78
2021/12/28 10:32:33;;;;;;;7.57;6.20;;;13.70;96.70;;;;;;5102405;27;20050;-76
2021/12/28 10:35:06;;;;;;;8.48;6.07;;;13.70;96.70;;;;;;5082258;27;20307;-75
2021/12/28 10:37:37;;;;;;;6.57;5.88;;;13.70;96.70;;;;;;5100790;27;20047;-76
2021/12/28 10:40:08;;;;;;;8.98;5.78;;;13.80;96.70;;;;;;5120109;27;20047;-76
2021/12/28 10:42:43;;;;;;;8.68;6.47;;;13.80;96.70;;;;;;5098931;27;20051;-76
2021/12/28 10:45:13;;;;;;;6.38;5.75;;;13.90;96.70;;;;;;5116674;27;20047;-76
2021/12/28 10:47:43;;;;;;;6.63;5.70;;;13.90;96.70;;;;;;5103550;27;20047;-77
2021/12/28 10:50:38;;;;;;;6.10;4.80;;;13.90;96.70;;;;;;5098734;27;20054;-76
2021/12/28 10:53:18;;;;;;;6.15;5.10;;;13.90;96.70;;;;;;5100602;27;20159;-76
2021/12/28 10:55:49;;;;;;;6.50;5.53;;;14.00;96.70;;;;;;5096431;27;20051;-76
2021/12/28 10:58:33;;;;;;;6.85;5.53;;;14.00;96.70;;;;;;5116882;27;20110;-77
2021/12/28 11:01:04;;;;;;;8.48;6.13;;;14.00;96.70;;;;;;5116797;27;20182;-77
2021/12/28 11:03:36;;;;;;;5.95;5.35;;;14.00;96.70;;;;;;5123461;27;20442;-76
2021/12/28 11:06:16;;;;;;;9.10;8.20;;;14.00;96.70;;;;;;5096305;27;21082;-76
2021/12/28 11:08:47;;;;;;;6.78;6.03;;;14.00;96.70;;;;;;5100958;27;20046;-76
2021/12/28 11:11:18;;;;;;;7.07;6.30;;;14.10;96.70;;;;;;5116619;27;20031;-76
2021/12/28 11:13:46;;;;;;;8.05;6.72;;;14.20;96.70;;;;;;5093343;27;20434;-76
2021/12/28 11:16:19;;;;;;;7.57;6.38;;;14.20;96.70;;;;;;5092399;27;20431;-76
2021/12/28 11:18:51;;;;;;;7.00;6.07;;;14.30;96.70;;;;;;5094959;27;20042;-77
2021/12/28 11:21:21;;;;;;;8.10;6.63;;;14.30;96.70;;;;;;5095256;27;20126;-76
2021/12/28 11:23:52;;;;;;;6.68;5.97;;;14.30;96.70;;;;;;5098756;27;20048;-76
2021/12/28 11:26:24;;;;;;;8.05;5.35;;;14.30;96.70;;;;;;5114617;27;20047;-76
2021/12/28 11:28:59;;;;;;;6.85;6.15;;;14.40;96.70;;;;;;5093949;27;20046;-76
2021/12/28 11:31:33;;;;;;;9.75;7.18;;;14.40;96.70;;;;;;5100443;27;20161;-76
2021/12/28 11:34:07;;;;;;;8.82;7.00;;;14.50;96.70;;;;;;5105338;27;20061;-76
2021/12/28 11:36:39;;;;;;;8.90;6.53;;;14.50;96.70;;;;;;5100334;27;20048;-75
2021/12/28 11:39:13;;;;;;;7.63;6.82;;;14.50;96.70;;;;;;5095216;27;20554;-76
2021/12/28 11:41:43;;;;;;;8.05;7.05;;;14.50;96.70;;;;;;5118722;27;20067;-75
2021/12/28 11:44:12;;;;;;;7.65;6.10;;;14.50;96.70;;;;;;5079354;27;20074;-76
2021/12/28 11:46:41;;;;;;;7.18;6.20;;;14.40;96.70;;;;;;5097980;27;20047;-76
2021/12/28 11:49:14;;;;;;;6.78;6.00;;;14.40;96.70;;;;;;5086829;27;20063;-74
2021/12/28 11:51:47;;;;;;;8.38;6.82;;;14.50;96.70;;;;;;5121575;27;20042;-75
2021/12/28 11:54:20;;;;;;;7.10;6.38;;;14.50;96.70;;;;;;5093518;27;20035;-74
2021/12/28 11:56:55;;;;;;;9.07;6.55;;;14.60;96.70;;;;;;5093796;27;20508;-74
2021/12/28 11:59:28;;;;;;;10.27;7.68;;;14.60;96.70;;;;;;5117059;27;20043;-77
2021/12/28 12:01:59;;;;;;;7.75;6.50;;;14.70;96.70;;;;;;5097436;27;20047;-74
2021/12/28 12:04:46;;;;;;;6.63;5.85;;;14.80;96.70;;;;;;5096246;27;20031;-74
2021/12/28 12:07:32;;;;;;;6.60;6.00;;;14.80;96.70;;;;;;5097597;27;20043;-75
2021/12/28 12:10:27;;;;;;;6.68;6.03;;;14.80;96.70;;;;;;5117708;27;20039;-76
2021/12/28 12:13:04;;;;;;;8.80;5.97;;;14.80;96.70;;;;;;5099485;27;20104;-75
2021/12/28 12:15:40;;;;;;;7.22;6.53;;;15.00;96.70;;;;;;5081207;27;20420;-75
2021/12/28 12:18:12;;;;;;;6.75;5.68;;;15.00;96.70;;;;;;5096551;27;20043;-75
2021/12/28 12:20:49;;;;;;;7.15;6.28;;;15.00;96.70;;;;;;5119272;27;20138;-75
2021/12/28 12:23:22;;;;;;;5.93;5.20;;;14.90;96.70;;;;;;5080945;28;20048;-76
2021/12/28 12:26:00;;;;;;;8.02;6.05;;;14.80;96.70;;;;;;5118905;27;20054;-75
2021/12/28 12:28:41;;;;;;;7.32;5.55;;;14.70;96.70;;;;;;5083926;27;20047;-75
2021/12/28 12:31:19;;;;;;;10.05;5.88;;;14.60;96.70;;;;;;5112286;27;20035;-74
2021/12/28 12:33:48;;;;;;;8.18;5.72;;;14.50;96.70;;;;;;5099138;27;20549;-74
2021/12/28 12:36:28;;;;;;;9.27;6.97;;;14.40;96.70;;;;;;5101524;27;20112;-74
2021/12/28 12:38:57;;;;;;;7.78;5.80;;;14.40;96.70;;;;;;5100251;27;20050;-74
2021/12/28 12:41:39;;;;;;;7.72;6.93;;;14.30;96.70;;;;;;5094998;27;20046;-74
2021/12/28 12:44:11;;;;;;;8.73;6.75;;;14.30;96.70;;;;;;5114831;27;20054;-74
2021/12/28 12:46:43;;;;;;;7.85;6.95;;;14.30;96.70;;;;;;5120553;27;20065;-75
2021/12/28 12:49:21;;;;;;;8.70;6.85;;;14.30;96.70;;;;;;5117282;27;20253;-75
2021/12/28 12:51:57;;;;;;;9.60;7.40;;;14.30;96.70;;;;;;5099847;27;20146;-75
2021/12/28 12:54:38;;;;;;;9.70;7.05;;;14.40;96.70;;;;;;5116144;27;20097;-75
2021/12/28 12:57:11;;;;;;;24.58;19.20;;;14.40;96.70;;;;;;5097164;27;20044;-74
2021/12/28 12:59:45;;;;;;;14.98;12.27;;;14.40;96.70;;;;;;5112092;27;20047;-75
2021/12/28 13:02:31;;;;;;;11.25;9.50;;;14.40;96.70;;;;;;5099561;27;20039;-75
2021/12/28 13:05:09;;;;;;;10.73;8.23;;;14.40;96.70;;;;;;5114406;27;20123;-74
2021/12/28 13:07:40;;;;;;;9.40;7.88;;;14.40;96.70;;;;;;5096213;27;20051;-75